20:35
Airports
Links
Donate
Help keep this website running!
PayPal
Bitcoin
METAR
SKMD 221900Z 21010KT 9999 TS SCT033TCU SCT080 26/17 A3003 RMK CB VCSH SE/SW/NW
Current Weather Conditions at SKMD
VFR 19:00:00 22-09-17
Altimeter:30.03 hg
Temp:26.0°c 79°f
Dew point:17.0°c 63°f
Wind:10 knots, 11.5 mph, 5 m/s, from 210°
Visibility:6.21 statute miles
8000(SCT) Scattered
3300(SCT) Scattered
Past METAR reports
VFR 18:00:00 22-09-17
Altimeter:30.06 hg
Temp:28.0°c 82°f
Dew point:17.0°c 63°f
Wind:5 knots, 5.8 mph, 3 m/s, from 60°
Visibility:6.21 statute miles
8000(SCT) Scattered
3300(SCT) Scattered
SKMD 221800Z 06005KT 9999 VCSH SCT033TCU SCT080 28/17 A3006 RMK TCU VCSH N/S
VFR 17:00:00 22-09-17
Altimeter:30.10 hg
Temp:27.0°c 81°f
Dew point:16.0°c 61°f
Wind:2 knots, 2.3 mph, 1 m/s,
Variable direction
Visibility:6.21 statute miles
20000(BKN) Broken
3200(SCT) Scattered
SKMD 221700Z VRB02KT 9999 SCT032 BKN200 27/16 A3010
VFR 16:00:00 22-09-17
Altimeter:30.13 hg
Temp:26.0°c 79°f
Dew point:17.0°c 63°f
Wind:2 knots, 2.3 mph, 1 m/s,
Variable direction
Visibility:6.21 statute miles
20000(BKN) Broken
3000(SCT) Scattered
SKMD 221600Z VRB02KT 9999 SCT030 BKN200 26/17 A3013
MVFR 15:00:00 22-09-17
Altimeter:30.15 hg
Temp:25.0°c 77°f
Dew point:18.0°c 64°f
Wind:0 knots, 0 mph, 0 m/s,
Variable direction
Visibility:4.97 statute miles
20000(BKN) Broken
2000(SCT) Scattered
SKMD 221500Z 00000KT 8000 SCT020 BKN200 25/18 A3015 RMK HZ
TAF
No TAF for SKMD
Forecast at SKMD
No Forecast Reports for SKMD